Asharoken, New York
Current Conditions -  °F | °C
As of 4:53 AM on Sunday 23 Nov 2014 (Local Time) from KFRG Reporting Station
Overcast Overcast  
Wind Chill: 40°   Ceiling: 11000
Heat Index: 45°   Visibility: 10mi
Dew Point: 24°   Wind: 10mph
Humidity: 44%   Direction: 250°WSW
Pressure: 30.19"   Gusts: NA
Location:  40.9096°N, 73.3231°W
Report Text: KFRG 230953Z AUTO 25009KT 10SM OVC110 07/M04 A3019 RMK AO2 SLP223 T00721044
Loading
Personal Weather Stations






























Interactive Weather Map New forecast layout! Learn more

10-Day Weather Forecast

Advertisements
Track Severe Weather on mobile